CSAV Loncomilla — VRFB3 — position and weather

sailwx.info

Track history (hours):
 
Tides and Currents Weather Stations Pressure Air Temp Water Temp Dewpoint Dewpoint Depression Visibility Wind Speed Wind Dir Waves Ship Positions

CSAV Loncomilla

Last reported at 2014-Aug-17 04:26 UTC. Time now 2014-Aug-28 03:26 UTC.
Position N 26°50' W 079°55'.
Warning: this ship's position is 10 days out of date.

Length 261 m; draft 10.7 m.

MMSI: 477207400.

Date/timePositionNaut miles runAvg speedWind from/ knotsBaromVisibWave heightAir tempDewpointWater temp
2014-Aug-17 04:26N 26°50' W 079°55'1314.5
2014-Aug-17 03:33N 27°02' W 079°55'  
2014-Aug-14 16:21N 36°57' W 075°59'1315.8
2014-Aug-14 15:32N 37°08' W 076°08'11318.9
2014-Aug-14 09:34N 39°00' W 076°23'1212.4
2014-Aug-14 08:33N 39°11' W 076°29'5 4.8
2014-Aug-14 07:32N 39°15' W 076°33'0 0.0
2014-Aug-14 06:31N 39°15' W 076°33'0 0.0
2014-Aug-14 05:31N 39°15' W 076°33'0 0.0
2014-Aug-14 04:31N 39°15' W 076°33'0 0.0
2014-Aug-14 03:31N 39°15' W 076°33'0 0.0
2014-Aug-14 02:31N 39°15' W 076°33'0 0.0
2014-Aug-14 01:31N 39°15' W 076°33'0 0.0
2014-Aug-14 00:31N 39°15' W 076°33'0 0.0
2014-Aug-13 23:31N 39°15' W 076°33'0 0.0
2014-Aug-13 22:31N 39°15' W 076°33'0 0.0
2014-Aug-13 21:31N 39°15' W 076°33'0 0.0
2014-Aug-13 20:31N 39°15' W 076°33'0 0.0
2014-Aug-13 19:31N 39°15' W 076°33'0 0.0
2014-Aug-13 18:31N 39°15' W 076°33'0 0.3
2014-Aug-13 17:33N 39°15' W 076°33'5 5.1
2014-Aug-13 16:33N 39°11' W 076°28'1212.0
2014-Aug-13 15:33N 39°00' W 076°23'1616.4
2014-Aug-13 14:33N 38°44' W 076°26'9418.0
2014-Aug-13 09:20N 37°11' W 076°09'1316.8
2014-Aug-13 08:33N 36°60' W 076°01'1110.3
2014-Aug-13 07:31N 36°52' W 075°51'1211.3
2014-Aug-13 06:24N 36°50' W 075°36'15219.3
2014-Aug-12 22:32N 39°01' W 073°57'2020.3
2014-Aug-12 21:33N 39°20' W 073°55'2020.2
2014-Aug-12 20:33N 39°41' W 073°53'2020.3
2014-Aug-12 19:33N 40°01' W 073°51'2519.8
2014-Aug-12 18:19N 40°25' W 073°48'1113.8
2014-Aug-12 17:33N 40°31' W 073°60'9 9.4
2014-Aug-12 16:34N 40°40' W 074°04'0 0.3
2014-Aug-12 15:33N 40°40' W 074°05'0 0.0
2014-Aug-12 14:30N 40°40' W 074°05'4 3.9
2014-Aug-12 13:33N 40°43' W 074°01'4535.6
2014-Aug-12 13:33N 40°40' W 074°05'0 0.0
2014-Aug-12 12:33N 40°40' W 074°05'0 0.0
2014-Aug-12 11:33N 40°40' W 074°05'0 0.0
2014-Aug-12 10:33N 40°40' W 074°05'0 0.0
2014-Aug-12 09:33N 40°40' W 074°05'0 0.0
2014-Aug-12 08:33N 40°40' W 074°05'0 0.0
2014-Aug-12 07:33N 40°40' W 074°05'0 0.0
2014-Aug-12 06:33N 40°40' W 074°05'0 0.0
2014-Aug-12 05:33N 40°40' W 074°05'0 0.0
2014-Aug-12 04:33N 40°40' W 074°05'0 0.0
2014-Aug-12 03:33N 40°40' W 074°05'0 0.0
2014-Aug-12 02:33N 40°40' W 074°05'0 0.0
2014-Aug-12 01:30N 40°40' W 074°05'0 0.0
2014-Aug-12 00:33N 40°40' W 074°05'0 0.0
2014-Aug-11 23:33N 40°40' W 074°05'0 0.0
2014-Aug-11 22:30N 40°40' W 074°05'0 0.0
2014-Aug-11 20:27N 40°40' W 074°05'0 0.0
2014-Aug-11 19:33N 40°40' W 074°05'0 0.0
2014-Aug-11 18:33N 40°40' W 074°05'0 0.0
2014-Aug-11 17:33N 40°40' W 074°05'0 0.0
2014-Aug-11 16:33N 40°40' W 074°05'0 0.0
2014-Aug-11 15:33N 40°40' W 074°05'0 0.0
2014-Aug-11 14:33N 40°40' W 074°05'0 0.0
2014-Aug-11 13:24N 40°40' W 074°05'0 0.0
2014-Aug-11 12:33N 40°40' W 074°05'0 0.0
2014-Aug-11 11:33N 40°40' W 074°05'2 2.3
2014-Aug-11 10:34N 40°38' W 074°03'1110.6
2014-Aug-11 09:33N 40°30' W 073°55'10 9.8
2014-Aug-11 08:33N 40°25' W 073°44'1514.7
2014-Aug-11 07:34N 40°16' W 073°29'1919.2
2014-Aug-11 06:33N 40°04' W 073°09'1919.4
2014-Aug-11 05:34N 39°48' W 072°54'1919.3
2014-Aug-11 04:33N 39°33' W 072°39'1919.2
2014-Aug-11 03:33N 39°17' W 072°25'2219.6
2014-Aug-11 02:25N 38°59' W 072°08'2119.3
2014-Aug-11 01:20N 38°42' W 071°52'  
Track history (hours):
 
Tides and Currents Weather Stations Pressure Air Temp Water Temp Dewpoint Dewpoint Depression Visibility Wind Speed Wind Dir Waves Ship Positions

CSAV Loncomilla

Last reported at 2014-Aug-17 04:26 UTC. Time now 2014-Aug-28 03:26 UTC.
Position N 26°50' W 079°55'.
Warning: this ship's position is 10 days out of date.

Length 261 m; draft 10.7 m.

MMSI: 477207400.

Date/timePositionNaut miles runAvg speedWind from/ knotsBaromVisibWave heightAir tempDewpointWater temp
2014-Aug-17 04:26N 26°50' W 079°55'1314.5
2014-Aug-17 03:33N 27°02' W 079°55'  
2014-Aug-14 16:21N 36°57' W 075°59'1315.8
2014-Aug-14 15:32N 37°08' W 076°08'11318.9
2014-Aug-14 09:34N 39°00' W 076°23'1212.4
2014-Aug-14 08:33N 39°11' W 076°29'5 4.8
2014-Aug-14 07:32N 39°15' W 076°33'0 0.0
2014-Aug-14 06:31N 39°15' W 076°33'0 0.0
2014-Aug-14 05:31N 39°15' W 076°33'0 0.0
2014-Aug-14 04:31N 39°15' W 076°33'0 0.0
2014-Aug-14 03:31N 39°15' W 076°33'0 0.0
2014-Aug-14 02:31N 39°15' W 076°33'0 0.0
2014-Aug-14 01:31N 39°15' W 076°33'0 0.0
2014-Aug-14 00:31N 39°15' W 076°33'0 0.0
2014-Aug-13 23:31N 39°15' W 076°33'0 0.0
2014-Aug-13 22:31N 39°15' W 076°33'0 0.0
2014-Aug-13 21:31N 39°15' W 076°33'0 0.0
2014-Aug-13 20:31N 39°15' W 076°33'0 0.0
2014-Aug-13 19:31N 39°15' W 076°33'0 0.0
2014-Aug-13 18:31N 39°15' W 076°33'0 0.3
2014-Aug-13 17:33N 39°15' W 076°33'5 5.1
2014-Aug-13 16:33N 39°11' W 076°28'1212.0
2014-Aug-13 15:33N 39°00' W 076°23'1616.4
2014-Aug-13 14:33N 38°44' W 076°26'9418.0
2014-Aug-13 09:20N 37°11' W 076°09'1316.8
2014-Aug-13 08:33N 36°60' W 076°01'1110.3
2014-Aug-13 07:31N 36°52' W 075°51'1211.3
2014-Aug-13 06:24N 36°50' W 075°36'15219.3
2014-Aug-12 22:32N 39°01' W 073°57'2020.3
2014-Aug-12 21:33N 39°20' W 073°55'2020.2
2014-Aug-12 20:33N 39°41' W 073°53'2020.3
2014-Aug-12 19:33N 40°01' W 073°51'2519.8
2014-Aug-12 18:19N 40°25' W 073°48'1113.8
2014-Aug-12 17:33N 40°31' W 073°60'9 9.4
2014-Aug-12 16:34N 40°40' W 074°04'0 0.3
2014-Aug-12 15:33N 40°40' W 074°05'0 0.0
2014-Aug-12 14:30N 40°40' W 074°05'4 3.9
2014-Aug-12 13:33N 40°43' W 074°01'4535.6
2014-Aug-12 13:33N 40°40' W 074°05'0 0.0
2014-Aug-12 12:33N 40°40' W 074°05'0 0.0
2014-Aug-12 11:33N 40°40' W 074°05'0 0.0
2014-Aug-12 10:33N 40°40' W 074°05'0 0.0
2014-Aug-12 09:33N 40°40' W 074°05'0 0.0
2014-Aug-12 08:33N 40°40' W 074°05'0 0.0
2014-Aug-12 07:33N 40°40' W 074°05'0 0.0
2014-Aug-12 06:33N 40°40' W 074°05'0 0.0
2014-Aug-12 05:33N 40°40' W 074°05'0 0.0
2014-Aug-12 04:33N 40°40' W 074°05'0 0.0
2014-Aug-12 03:33N 40°40' W 074°05'0 0.0
2014-Aug-12 02:33N 40°40' W 074°05'0 0.0
2014-Aug-12 01:30N 40°40' W 074°05'0 0.0
2014-Aug-12 00:33N 40°40' W 074°05'0 0.0
2014-Aug-11 23:33N 40°40' W 074°05'0 0.0
2014-Aug-11 22:30N 40°40' W 074°05'0 0.0
2014-Aug-11 20:27N 40°40' W 074°05'0 0.0
2014-Aug-11 19:33N 40°40' W 074°05'0 0.0
2014-Aug-11 18:33N 40°40' W 074°05'0 0.0
2014-Aug-11 17:33N 40°40' W 074°05'0 0.0
2014-Aug-11 16:33N 40°40' W 074°05'0 0.0
2014-Aug-11 15:33N 40°40' W 074°05'0 0.0
2014-Aug-11 14:33N 40°40' W 074°05'0 0.0
2014-Aug-11 13:24N 40°40' W 074°05'0 0.0
2014-Aug-11 12:33N 40°40' W 074°05'0 0.0
2014-Aug-11 11:33N 40°40' W 074°05'2 2.3
2014-Aug-11 10:34N 40°38' W 074°03'1110.6
2014-Aug-11 09:33N 40°30' W 073°55'10 9.8
2014-Aug-11 08:33N 40°25' W 073°44'1514.7
2014-Aug-11 07:34N 40°16' W 073°29'1919.2
2014-Aug-11 06:33N 40°04' W 073°09'1919.4
2014-Aug-11 05:34N 39°48' W 072°54'1919.3
2014-Aug-11 04:33N 39°33' W 072°39'1919.2
2014-Aug-11 03:33N 39°17' W 072°25'2219.6
2014-Aug-11 02:25N 38°59' W 072°08'2119.3
2014-Aug-11 01:20N 38°42' W 071°52'  

Dump ship's entire track history